createdAt,value
2018-08-19T00:00:25.013Z,23.60
2018-08-19T00:03:00.638Z,23.50
2018-08-19T00:05:29.044Z,23.50
2018-08-19T00:07:57.728Z,23.40
2018-08-19T00:10:38.450Z,23.40
2018-08-19T00:13:08.798Z,23.40
2018-08-19T00:15:37.862Z,23.40
2018-08-19T00:18:07.653Z,23.40
2018-08-19T00:20:36.065Z,23.40
2018-08-19T00:23:04.629Z,23.40
2018-08-19T00:25:36.482Z,23.30
2018-08-19T00:28:08.745Z,23.30
2018-08-19T00:30:37.093Z,23.30
2018-08-19T00:33:05.715Z,23.30
2018-08-19T00:35:34.438Z,23.20
2018-08-19T00:38:03.224Z,23.20
2018-08-19T00:40:31.572Z,23.20
2018-08-19T00:43:00.599Z,23.20
2018-08-19T00:45:29.291Z,23.20
2018-08-19T00:47:57.502Z,23.20
2018-08-19T00:50:26.691Z,23.10
2018-08-19T00:52:55.507Z,23.10
2018-08-19T00:55:25.189Z,23.10
2018-08-19T00:57:57.887Z,23.10
2018-08-19T01:00:26.998Z,23.10
2018-08-19T01:02:55.366Z,23.10
2018-08-19T01:05:23.588Z,23.00
2018-08-19T01:07:51.800Z,23.10
2018-08-19T01:10:20.449Z,23.00
2018-08-19T01:12:48.820Z,22.90
2018-08-19T01:15:17.106Z,22.90
2018-08-19T01:17:46.022Z,22.80
2018-08-19T01:20:20.205Z,22.90
2018-08-19T01:22:48.598Z,22.90
2018-08-19T01:25:17.343Z,22.90
2018-08-19T01:27:45.773Z,22.90
2018-08-19T01:30:24.095Z,22.90
2018-08-19T01:32:52.308Z,22.80
2018-08-19T01:35:27.138Z,22.80
2018-08-19T01:37:56.164Z,22.80
2018-08-19T01:40:24.569Z,22.70
2018-08-19T01:42:52.970Z,22.60
2018-08-19T01:45:21.515Z,22.60
2018-08-19T01:47:49.708Z,22.50
2018-08-19T01:50:18.739Z,22.60
2018-08-19T01:52:48.647Z,22.60
2018-08-19T01:55:17.038Z,22.70
2018-08-19T01:57:49.905Z,22.70
2018-08-19T02:00:18.601Z,22.70
2018-08-19T02:03:07.480Z,22.70
2018-08-19T02:05:35.744Z,22.80
2018-08-19T02:08:04.881Z,22.70
2018-08-19T02:10:34.048Z,22.70
2018-08-19T02:13:02.527Z,22.70
2018-08-19T02:15:31.975Z,22.70
2018-08-19T02:18:02.529Z,22.70
2018-08-19T02:20:34.920Z,22.70
2018-08-19T02:23:05.123Z,22.70
2018-08-19T02:25:38.942Z,22.60
2018-08-19T02:28:08.139Z,22.60
2018-08-19T02:30:41.224Z,22.60
2018-08-19T02:33:09.437Z,22.60
2018-08-19T02:35:37.661Z,22.70
2018-08-19T02:38:06.126Z,22.60
2018-08-19T02:40:34.348Z,22.60
2018-08-19T02:43:02.871Z,22.60
2018-08-19T02:45:31.216Z,22.60
2018-08-19T02:47:59.561Z,22.60
2018-08-19T02:50:27.849Z,22.50
2018-08-19T02:52:56.134Z,22.50
2018-08-19T02:55:25.043Z,22.50
2018-08-19T02:57:57.633Z,22.50
2018-08-19T03:00:25.849Z,22.40
2018-08-19T03:02:54.172Z,22.40
2018-08-19T03:05:22.498Z,22.30
2018-08-19T03:07:50.829Z,22.30
2018-08-19T03:10:19.344Z,22.30
2018-08-19T03:15:17.336Z,22.30
2018-08-19T03:17:47.968Z,22.30
2018-08-19T03:20:18.111Z,22.30
2018-08-19T03:22:46.946Z,22.30
2018-08-19T03:25:15.484Z,22.30
2018-08-19T03:27:43.762Z,22.30
2018-08-19T03:30:13.853Z,22.20
2018-08-19T03:32:49.289Z,22.20
2018-08-19T03:35:19.980Z,22.10
2018-08-19T03:37:50.999Z,22.10
2018-08-19T03:40:19.473Z,22.00
2018-08-19T03:42:48.065Z,22.00
2018-08-19T03:45:19.773Z,22.00
2018-08-19T03:47:49.139Z,22.10
2018-08-19T03:50:22.893Z,22.10
2018-08-19T03:52:52.537Z,22.00
2018-08-19T03:55:26.773Z,22.00
2018-08-19T03:57:59.312Z,22.10
2018-08-19T04:00:28.918Z,22.10
2018-08-19T04:02:57.158Z,22.00
2018-08-19T04:05:42.281Z,22.00
2018-08-19T04:08:12.061Z,22.00
2018-08-19T04:10:41.616Z,22.00
2018-08-19T04:13:24.873Z,22.00
2018-08-19T04:15:54.328Z,22.00
2018-08-19T04:18:26.960Z,22.10
2018-08-19T04:20:56.737Z,22.10
2018-08-19T04:23:25.062Z,22.10
2018-08-19T04:25:54.308Z,22.10
2018-08-19T04:28:24.458Z,22.00
2018-08-19T04:30:54.348Z,22.00
2018-08-19T04:33:29.971Z,22.00
2018-08-19T04:35:58.210Z,22.00
2018-08-19T04:38:27.932Z,21.90
2018-08-19T04:40:56.774Z,21.90
2018-08-19T04:43:27.924Z,21.80
2018-08-19T04:45:56.941Z,21.90
2018-08-19T04:48:26.584Z,22.00
2018-08-19T04:50:56.123Z,22.00
2018-08-19T04:53:24.348Z,22.00
2018-08-19T04:55:53.697Z,22.00
2018-08-19T04:58:22.018Z,22.00
2018-08-19T05:00:50.302Z,22.00
2018-08-19T05:03:18.577Z,22.00
2018-08-19T05:05:46.750Z,22.10
2018-08-19T05:08:15.726Z,22.10
2018-08-19T05:10:43.937Z,22.20
2018-08-19T05:13:12.858Z,22.20
2018-08-19T05:15:41.808Z,22.30
2018-08-19T05:18:10.445Z,22.20
2018-08-19T05:20:39.097Z,22.30
2018-08-19T05:23:08.037Z,22.20
2018-08-19T05:25:45.564Z,22.20
2018-08-19T05:28:16.227Z,22.20
2018-08-19T05:30:44.838Z,22.20
2018-08-19T05:33:13.017Z,22.20
2018-08-19T05:35:41.235Z,22.20
2018-08-19T05:38:09.592Z,22.20
2018-08-19T05:40:42.107Z,22.30
2018-08-19T05:43:10.694Z,22.20
2018-08-19T05:45:43.247Z,22.20
2018-08-19T05:48:12.264Z,22.30
2018-08-19T05:50:41.762Z,22.30
2018-08-19T05:53:09.985Z,22.30
2018-08-19T05:55:38.496Z,22.30
2018-08-19T05:58:06.836Z,22.40
2018-08-19T06:00:35.259Z,22.40
2018-08-19T06:03:03.864Z,22.40
2018-08-19T06:05:32.161Z,22.40
2018-08-19T06:08:07.630Z,22.40
2018-08-19T06:10:35.908Z,22.50
2018-08-19T06:13:04.113Z,22.50
2018-08-19T06:15:32.378Z,22.50
2018-08-19T06:18:00.707Z,22.60
2018-08-19T06:20:30.300Z,22.60
2018-08-19T06:22:58.577Z,22.60
2018-08-19T06:25:27.192Z,22.70
2018-08-19T06:27:56.271Z,22.70
2018-08-19T06:30:24.878Z,22.70
2018-08-19T06:32:53.191Z,22.70
2018-08-19T06:35:21.702Z,22.70
2018-08-19T06:37:50.848Z,22.70
2018-08-19T06:40:20.316Z,22.80
2018-08-19T06:42:48.591Z,22.80
2018-08-19T06:45:16.973Z,22.80
2018-08-19T06:47:45.875Z,22.80
2018-08-19T06:50:20.859Z,22.80
2018-08-19T06:52:49.186Z,22.90
2018-08-19T06:55:17.879Z,22.90
2018-08-19T06:57:46.924Z,23.00
2018-08-19T07:00:34.242Z,23.00
2018-08-19T07:03:05.045Z,23.10
2018-08-19T07:05:33.956Z,23.10
2018-08-19T07:08:02.527Z,23.20
2018-08-19T07:10:41.196Z,23.20
2018-08-19T07:13:12.517Z,23.20
2018-08-19T07:15:41.990Z,23.20
2018-08-19T07:18:11.898Z,23.20
2018-08-19T07:20:41.321Z,23.30
2018-08-19T07:23:10.311Z,23.30
2018-08-19T07:25:40.086Z,23.30
2018-08-19T07:28:09.215Z,23.40
2018-08-19T07:30:38.817Z,23.40
2018-08-19T07:33:07.436Z,23.50
2018-08-19T07:35:35.884Z,23.60
2018-08-19T07:38:04.325Z,23.60
2018-08-19T07:40:33.071Z,23.70
2018-08-19T07:43:01.361Z,23.70
2018-08-19T07:45:30.336Z,23.70
2018-08-19T07:47:58.800Z,23.70
2018-08-19T07:50:27.345Z,23.80
2018-08-19T07:52:56.153Z,23.90
2018-08-19T07:55:25.093Z,23.90
2018-08-19T07:57:53.413Z,24.00
2018-08-19T08:00:26.946Z,24.00
2018-08-19T08:02:55.700Z,24.00
2018-08-19T08:05:24.753Z,24.00
2018-08-19T08:07:53.230Z,24.00
2018-08-19T08:10:21.527Z,24.10
2018-08-19T08:12:54.834Z,24.10
2018-08-19T08:15:23.772Z,24.10
2018-08-19T08:17:52.059Z,24.10
2018-08-19T08:20:20.392Z,24.30
2018-08-19T08:22:48.729Z,24.30
2018-08-19T08:25:17.106Z,24.40
2018-08-19T08:27:45.547Z,24.60
2018-08-19T08:30:13.941Z,24.60
2018-08-19T08:32:45.409Z,24.70
2018-08-19T08:35:14.243Z,24.80
2018-08-19T08:37:43.038Z,24.90
2018-08-19T08:40:12.145Z,24.90
2018-08-19T08:42:41.840Z,25.00
2018-08-19T08:45:11.958Z,25.00
2018-08-19T08:47:40.685Z,25.00
2018-08-19T08:50:10.448Z,25.00
2018-08-19T08:52:38.760Z,24.90
2018-08-19T08:55:09.387Z,24.90
2018-08-19T08:57:38.579Z,25.00
2018-08-19T09:00:08.241Z,24.90
2018-08-19T09:02:36.622Z,24.80
2018-08-19T09:05:07.194Z,24.90
2018-08-19T09:07:35.691Z,24.90
2018-08-19T09:10:04.010Z,25.00
2018-08-19T09:12:41.842Z,25.10
2018-08-19T09:15:10.154Z,25.20
2018-08-19T09:17:38.573Z,25.20
2018-08-19T09:20:08.319Z,25.20
2018-08-19T09:22:36.774Z,25.30
2018-08-19T09:25:06.863Z,25.40
2018-08-19T09:27:36.068Z,25.40
2018-08-19T09:30:05.473Z,25.40
2018-08-19T09:32:34.209Z,25.40
2018-08-19T09:35:02.650Z,25.40
2018-08-19T09:37:31.033Z,25.40
2018-08-19T09:39:59.412Z,25.50
2018-08-19T09:42:28.129Z,25.50
2018-08-19T09:44:56.347Z,25.50
2018-08-19T09:47:24.683Z,25.50
2018-08-19T09:49:53.267Z,25.50
2018-08-19T09:52:22.624Z,25.60
2018-08-19T09:54:51.214Z,25.70
2018-08-19T09:57:19.976Z,25.70
2018-08-19T09:59:48.319Z,25.70
2018-08-19T10:02:16.910Z,25.80
2018-08-19T10:04:45.386Z,25.70
2018-08-19T10:07:13.958Z,25.80
2018-08-19T10:09:42.690Z,25.90
2018-08-19T10:12:11.840Z,25.90
2018-08-19T10:14:40.258Z,25.90
2018-08-19T10:17:08.631Z,25.90
2018-08-19T10:19:36.935Z,25.90
2018-08-19T10:22:05.270Z,25.90
2018-08-19T10:24:34.695Z,25.90
2018-08-19T10:27:07.214Z,25.90
2018-08-19T10:29:35.435Z,25.90
2018-08-19T10:32:04.342Z,26.00
2018-08-19T10:34:34.389Z,25.90
2018-08-19T10:37:03.232Z,25.90
2018-08-19T10:39:31.487Z,26.00
2018-08-19T10:42:16.906Z,26.00
2018-08-19T10:44:46.459Z,26.00
2018-08-19T10:47:14.909Z,26.00
2018-08-19T10:49:44.500Z,26.10
2018-08-19T10:52:18.382Z,26.10
2018-08-19T10:54:47.389Z,26.10
2018-08-19T10:57:20.783Z,26.20
2018-08-19T10:59:52.973Z,26.20
2018-08-19T11:02:21.368Z,26.20
2018-08-19T11:04:50.067Z,26.20
2018-08-19T11:07:18.951Z,26.20
2018-08-19T11:09:59.199Z,26.20
2018-08-19T11:12:28.198Z,26.20
2018-08-19T11:14:56.535Z,26.20
2018-08-19T11:17:25.256Z,26.20
2018-08-19T11:19:53.553Z,26.20
2018-08-19T11:22:21.814Z,26.30
2018-08-19T11:24:50.074Z,26.30
2018-08-19T11:27:18.394Z,26.30
2018-08-19T11:29:47.601Z,26.30
2018-08-19T11:32:30.206Z,26.30
2018-08-19T11:34:58.432Z,26.40
2018-08-19T11:37:27.226Z,26.40
2018-08-19T11:39:56.347Z,26.40
2018-08-19T11:42:24.975Z,26.50
2018-08-19T11:44:53.514Z,26.50
2018-08-19T11:47:21.853Z,26.50
2018-08-19T11:49:50.222Z,26.50
2018-08-19T11:52:18.575Z,26.50
2018-08-19T11:54:47.732Z,26.60
2018-08-19T11:57:16.100Z,26.60
2018-08-19T11:59:45.549Z,26.70
2018-08-19T12:02:16.720Z,26.70
2018-08-19T12:04:45.687Z,26.80
2018-08-19T12:07:13.975Z,26.90
2018-08-19T12:09:45.153Z,26.90
2018-08-19T12:12:14.037Z,26.90
2018-08-19T12:14:42.358Z,26.90
2018-08-19T12:17:11.820Z,27.00
2018-08-19T12:19:41.428Z,27.00
2018-08-19T12:22:10.077Z,27.00
2018-08-19T12:24:44.295Z,27.10
2018-08-19T12:27:15.164Z,27.20
2018-08-19T12:29:44.377Z,27.20
2018-08-19T12:32:18.613Z,27.20
2018-08-19T12:34:50.207Z,27.20
2018-08-19T12:37:19.984Z,27.30
2018-08-19T12:39:48.730Z,27.30
2018-08-19T12:42:17.042Z,27.30
2018-08-19T12:44:59.276Z,27.30
2018-08-19T12:47:28.222Z,27.30
2018-08-19T12:49:58.832Z,27.40
2018-08-19T12:52:29.159Z,27.40
2018-08-19T12:55:03.425Z,27.40
2018-08-19T12:57:31.704Z,27.50
2018-08-19T13:00:33.359Z,27.50
2018-08-19T13:03:02.102Z,27.50
2018-08-19T13:05:30.683Z,27.50
2018-08-19T13:07:59.243Z,27.50
2018-08-19T13:10:37.474Z,27.50
2018-08-19T13:13:06.127Z,27.50
2018-08-19T13:15:34.444Z,27.50
2018-08-19T13:18:02.886Z,27.60
2018-08-19T13:20:31.190Z,27.60
2018-08-19T13:23:04.453Z,27.60
2018-08-19T13:25:33.224Z,27.60
2018-08-19T13:28:01.461Z,27.70
2018-08-19T13:30:29.812Z,27.70
2018-08-19T13:32:58.192Z,27.70
2018-08-19T13:35:26.676Z,27.70
2018-08-19T13:37:55.038Z,27.80
2018-08-19T13:40:23.427Z,27.80
2018-08-19T13:42:51.742Z,27.80
2018-08-19T13:45:21.164Z,27.80
2018-08-19T13:47:51.005Z,27.80
2018-08-19T13:50:19.349Z,27.80
2018-08-19T13:52:48.054Z,27.80
2018-08-19T13:55:17.881Z,27.80
2018-08-19T13:57:46.408Z,27.80
2018-08-19T14:00:18.843Z,27.80
2018-08-19T14:02:47.721Z,27.90
2018-08-19T14:05:16.287Z,27.90
2018-08-19T14:07:45.118Z,27.90
2018-08-19T14:10:14.506Z,27.90
2018-08-19T14:12:42.899Z,28.00
2018-08-19T14:15:11.281Z,28.00
2018-08-19T14:17:39.525Z,28.10
2018-08-19T14:20:08.788Z,28.10
2018-08-19T14:22:37.024Z,28.10
2018-08-19T14:25:06.523Z,28.20
2018-08-19T14:27:34.677Z,28.30
2018-08-19T14:30:03.091Z,28.30
2018-08-19T14:32:39.106Z,28.40
2018-08-19T14:35:07.822Z,28.40
2018-08-19T14:37:36.035Z,28.50
2018-08-19T14:40:05.795Z,28.50
2018-08-19T14:42:34.142Z,28.60
2018-08-19T14:45:02.519Z,28.60
2018-08-19T14:47:30.857Z,28.60
2018-08-19T14:50:00.233Z,28.70
2018-08-19T14:52:28.881Z,28.70
2018-08-19T14:54:58.363Z,28.70
2018-08-19T14:57:29.188Z,28.80
2018-08-19T14:59:57.825Z,28.80
2018-08-19T15:02:26.407Z,28.80
2018-08-19T15:04:54.823Z,28.80
2018-08-19T15:07:23.495Z,28.90
2018-08-19T15:09:53.225Z,28.90
2018-08-19T15:12:22.851Z,28.90
2018-08-19T15:14:51.940Z,29.00
2018-08-19T15:17:20.963Z,29.00
2018-08-19T15:19:51.282Z,29.00
2018-08-19T15:22:20.451Z,29.00
2018-08-19T15:24:49.066Z,29.00
2018-08-19T15:27:18.452Z,29.10
2018-08-19T15:29:48.635Z,29.10
2018-08-19T15:32:17.126Z,29.10
2018-08-19T15:34:45.287Z,29.10
2018-08-19T15:37:13.517Z,29.10
2018-08-19T15:39:42.991Z,29.10
2018-08-19T15:42:11.426Z,29.10
2018-08-19T15:44:41.886Z,29.10
2018-08-19T15:47:10.490Z,29.00
2018-08-19T15:49:38.740Z,29.00
2018-08-19T15:52:07.105Z,29.00
2018-08-19T15:54:35.651Z,28.90
2018-08-19T15:57:04.501Z,28.90
2018-08-19T15:59:36.235Z,28.90
2018-08-19T16:02:04.766Z,28.90
2018-08-19T16:04:33.126Z,28.90
2018-08-19T16:07:01.762Z,28.80
2018-08-19T16:09:30.551Z,28.80
2018-08-19T16:11:58.840Z,28.80
2018-08-19T16:14:28.729Z,28.80
2018-08-19T16:16:58.124Z,28.80
2018-08-19T16:19:26.450Z,28.70
2018-08-19T16:21:55.932Z,28.70
2018-08-19T16:24:24.435Z,28.70
2018-08-19T16:26:52.935Z,28.70
2018-08-19T16:29:21.391Z,28.70
2018-08-19T16:31:49.661Z,28.60
2018-08-19T16:34:17.980Z,28.60
2018-08-19T16:36:46.354Z,28.60
2018-08-19T16:39:16.443Z,28.60
2018-08-19T16:41:44.769Z,28.50
2018-08-19T16:44:13.241Z,28.60
2018-08-19T16:46:41.796Z,28.60
2018-08-19T16:49:11.258Z,28.50
2018-08-19T16:51:40.771Z,28.50
2018-08-19T16:54:09.491Z,28.50
2018-08-19T16:56:38.116Z,28.50
2018-08-19T16:59:06.631Z,28.50
2018-08-19T17:01:35.630Z,28.50
2018-08-19T17:04:04.443Z,28.40
2018-08-19T17:06:33.441Z,28.40
2018-08-19T17:09:02.140Z,28.40
2018-08-19T17:11:30.598Z,28.30
2018-08-19T17:13:59.033Z,28.30
2018-08-19T17:16:27.496Z,28.30
2018-08-19T17:18:55.846Z,28.30
2018-08-19T17:21:24.348Z,28.20
2018-08-19T17:23:53.121Z,28.20
2018-08-19T17:26:22.932Z,28.10
2018-08-19T17:28:51.535Z,28.10
2018-08-19T17:31:20.335Z,28.10
2018-08-19T17:33:48.765Z,28.10
2018-08-19T17:36:23.540Z,28.00
2018-08-19T17:38:51.862Z,28.00
2018-08-19T17:41:20.277Z,28.00
2018-08-19T17:43:48.780Z,27.90
2018-08-19T17:46:19.404Z,27.90
2018-08-19T17:48:48.130Z,27.90
2018-08-19T17:51:27.819Z,27.80
2018-08-19T17:53:56.277Z,27.80
2018-08-19T17:56:24.959Z,27.80
2018-08-19T17:58:53.526Z,27.80
2018-08-19T18:01:22.279Z,27.70
2018-08-19T18:03:50.736Z,27.70
2018-08-19T18:06:19.246Z,27.70
2018-08-19T18:08:51.615Z,27.60
2018-08-19T18:11:20.550Z,27.60
2018-08-19T18:13:49.873Z,27.60
2018-08-19T18:16:18.438Z,27.50
2018-08-19T18:18:47.962Z,27.50
2018-08-19T18:21:16.481Z,27.50
2018-08-19T18:23:46.323Z,27.50
2018-08-19T18:26:15.650Z,27.50
2018-08-19T18:28:46.285Z,27.40
2018-08-19T18:31:17.273Z,27.30
2018-08-19T18:33:51.900Z,27.30
2018-08-19T18:36:22.302Z,27.30
2018-08-19T18:38:51.195Z,27.20
2018-08-19T18:41:26.714Z,27.20
2018-08-19T18:43:57.309Z,27.10
2018-08-19T18:46:26.124Z,27.10
2018-08-19T18:49:00.530Z,27.10
2018-08-19T18:51:29.626Z,27.00
2018-08-19T18:53:57.896Z,27.00
2018-08-19T18:56:27.455Z,26.90
2018-08-19T18:58:55.850Z,26.90
2018-08-19T19:01:24.458Z,26.90
2018-08-19T19:03:52.880Z,26.90
2018-08-19T19:06:21.254Z,26.80
2018-08-19T19:08:49.734Z,26.80
2018-08-19T19:11:20.924Z,26.80
2018-08-19T19:13:49.301Z,26.70
2018-08-19T19:16:23.299Z,26.70
2018-08-19T19:18:51.697Z,26.70
2018-08-19T19:21:20.199Z,26.70
2018-08-19T19:23:48.497Z,26.70
2018-08-19T19:26:17.049Z,26.60
2018-08-19T19:28:45.588Z,26.60
2018-08-19T19:31:16.181Z,26.60
2018-08-19T19:33:44.623Z,26.50
2018-08-19T19:36:19.875Z,26.50
2018-08-19T19:38:53.824Z,26.50
2018-08-19T19:41:24.896Z,26.50
2018-08-19T19:43:53.676Z,26.50
2018-08-19T19:46:22.464Z,26.50
2018-08-19T19:48:50.931Z,26.50
2018-08-19T19:51:21.922Z,26.50
2018-08-19T19:53:50.800Z,26.50
2018-08-19T19:56:20.431Z,26.40
2018-08-19T19:58:50.279Z,26.40
2018-08-19T20:01:18.894Z,26.30
2018-08-19T20:03:52.561Z,26.30
2018-08-19T20:06:21.551Z,26.30
2018-08-19T20:08:50.033Z,26.20
2018-08-19T20:11:23.788Z,26.20
2018-08-19T20:13:52.205Z,26.10
2018-08-19T20:16:20.720Z,26.10
2018-08-19T20:18:49.160Z,26.00
2018-08-19T20:21:22.926Z,26.00
2018-08-19T20:23:52.454Z,26.00
2018-08-19T20:26:21.358Z,26.00
2018-08-19T20:28:50.881Z,26.00
2018-08-19T20:31:19.434Z,26.10
2018-08-19T20:33:47.753Z,26.10
2018-08-19T20:36:16.041Z,26.00
2018-08-19T20:38:45.159Z,26.00
2018-08-19T20:41:13.645Z,26.00
2018-08-19T20:43:42.245Z,26.00
2018-08-19T20:46:10.741Z,25.90
2018-08-19T20:48:39.280Z,25.90
2018-08-19T20:51:07.922Z,25.90
2018-08-19T20:53:36.303Z,25.90
2018-08-19T20:56:04.735Z,25.90
2018-08-19T20:58:33.791Z,25.70
2018-08-19T21:01:03.174Z,25.70
2018-08-19T21:03:31.542Z,25.70
2018-08-19T21:05:59.765Z,25.80
2018-08-19T21:08:28.133Z,25.80
2018-08-19T21:10:56.681Z,25.90
2018-08-19T21:13:25.176Z,25.90
2018-08-19T21:15:55.867Z,25.90
2018-08-19T21:18:24.301Z,25.80
2018-08-19T21:20:53.650Z,25.90
2018-08-19T21:23:21.961Z,25.90
2018-08-19T21:25:55.634Z,25.90
2018-08-19T21:28:24.107Z,25.90
2018-08-19T21:30:52.492Z,25.80
2018-08-19T21:33:21.072Z,25.70
2018-08-19T21:35:52.327Z,25.60
2018-08-19T21:38:20.864Z,25.60
2018-08-19T21:40:52.338Z,25.60
2018-08-19T21:43:21.326Z,25.60
2018-08-19T21:45:50.997Z,25.60
2018-08-19T21:48:19.430Z,25.60
2018-08-19T21:50:47.853Z,25.60
2018-08-19T21:53:18.527Z,25.60
2018-08-19T21:55:48.528Z,25.60
2018-08-19T21:58:17.753Z,25.60
2018-08-19T22:01:03.471Z,25.60
2018-08-19T22:03:37.327Z,25.60
2018-08-19T22:06:07.909Z,25.60
2018-08-19T22:08:36.406Z,25.50
2018-08-19T22:11:05.055Z,25.50
2018-08-19T22:13:33.359Z,25.40
2018-08-19T22:16:02.238Z,25.40
2018-08-19T22:18:31.281Z,25.30
2018-08-19T22:21:21.750Z,25.30
2018-08-19T22:23:51.457Z,25.20
2018-08-19T22:26:20.867Z,25.20
2018-08-19T22:29:03.548Z,25.20
2018-08-19T22:31:31.778Z,25.20
2018-08-19T22:34:00.095Z,25.00
2018-08-19T22:36:28.290Z,25.00
2018-08-19T22:38:57.179Z,25.00
2018-08-19T22:41:27.876Z,25.00
2018-08-19T22:43:56.712Z,25.00
2018-08-19T22:46:26.131Z,25.10
2018-08-19T22:48:55.311Z,25.10
2018-08-19T22:51:23.813Z,25.00
2018-08-19T22:53:53.497Z,25.00
2018-08-19T22:56:22.196Z,25.00
2018-08-19T22:58:50.531Z,25.00
2018-08-19T23:01:19.117Z,25.00
2018-08-19T23:03:47.527Z,25.00
2018-08-19T23:06:16.129Z,25.00
2018-08-19T23:08:44.651Z,25.00
2018-08-19T23:11:13.081Z,25.00
2018-08-19T23:13:52.630Z,25.00
2018-08-19T23:16:21.899Z,25.00
2018-08-19T23:18:50.116Z,24.90
2018-08-19T23:21:19.049Z,24.90
2018-08-19T23:23:47.248Z,24.90
2018-08-19T23:26:15.425Z,24.90
2018-08-19T23:28:43.598Z,24.80
2018-08-19T23:31:11.976Z,24.80
2018-08-19T23:33:40.182Z,24.60
2018-08-19T23:36:08.385Z,24.50
2018-08-19T23:38:36.627Z,24.40
2018-08-19T23:41:05.177Z,24.40
2018-08-19T23:43:33.365Z,24.40
2018-08-19T23:46:01.623Z,24.30
2018-08-19T23:48:29.878Z,24.30
2018-08-19T23:50:58.097Z,24.30
2018-08-19T23:53:26.280Z,24.30
2018-08-19T23:55:54.525Z,24.30
2018-08-19T23:58:22.759Z,24.20
